Lake Isabella, CA

1:58 PM PST on December 27, 2014 (GMT -0800)
Mojave | Change Station
CLOSE
Current Station
Airport
Location: Mojave,
Elevation: 2785 ft
Nearby Weather Stations

Elev 2785 ft 35.06 °N, 118.15 °W | Updated 23 minutes ago

Clear
Clear
41 °F
Feels Like 39 °F
N
4
Wind Variable Wind from NNE

Today
High -- | Low -- °F
--% Chance of Precip.
Yesterday
High -- | Low -- °F
Precip. -- in
7:02 AM 4:47 PM
Waxing Crescent, 40% visible
Pressure 30.35 in
Visibility 10.0 miles
Clouds Clear
Windchill 39 °F
Dew Point 10 °F
Humidity 29%
Rainfall 0.00 in
Snow Depth Not available.
UV 2 out of 12
Pollen 5.60 out of 12
Air Quality Not available.
Flu Activity Not available.
METAR KMHV 272135Z AUTO 03003KT 10SM CLR 05/M12 A3035 RMK AO1

More Conditions Fewer Conditions

Pressure 30.35 in
Visibility 10.0 miles
Clouds Clear
Windchill 39 °F
Dew Point 10 °F
Humidity 29%
Rainfall 0.00 in
Snow Depth Not available.
UV 2 out of 12
Pollen 5.60 out of 12
Air Quality Not available.
Flu Activity Not available.
METAR KMHV 272135Z AUTO 03003KT 10SM CLR 05/M12 A3035 RMK AO1

More Conditions Fewer Conditions

10-Day Weather Forecast

Almanac

Astronomy

Dec. 27, 2014 Rise Set
Actual Time
Civil Twilight
Nautical Twilight
Astronomical Twilight
Moon
Length of Visible Light
Length of Day
Tomorrow will be .
, % of the Moon is Illuminated

Today's Extremes

State Highs State Lows

Community

WunderPhotos

Upload Photos

1,781,073 photos uploaded!

WunderBlogs® & News

Nearby

Air Quality

  Air Quality AQ Index Pollutant
Not available.

Snow Depth

Station Depth Elevation

Earthquake Activity

City Distance Mag. Time & Date
Minimum magnitude displayed is 2.5.

Coastal Water Temperatures

Place Temperature

Nearby Weather Stations